CheckWX is a tool to help pilots better visualize weather data.  It is not intended as a substitute for an official pre-flight weather briefing.

02:52:50 UTC

KIZA METAR
Santa Ynez Airport
Santa Ynez, California, USA
Current

18 mins ago

KIZA 240235Z AUTO 26005KT 10SM SCT065 11/07 A3016 RMK AO2
Observed
Mar-24 @ 02:35 UTC
Wind
  • 260° at 5 KTS
Visibility
10 SM
Flight Rules
VFR
Cloud Levels
  • Scattered at 6,500' AGL
Temperature
11°C / 52°F
Dewpoint
C / 45°F
Humidity
77%
Altimeter
30.16" Hg
Pressure
1021.32 hPa
Previous

38 mins ago

KIZA 240215Z AUTO 28008KT 10SM BKN075 12/06 A3016 RMK AO2
Observed
Mar-24 @ 02:15 UTC
Wind
  • 280° at 8 KTS
Visibility
10 SM
Flight Rules
VFR
Cloud Levels
  • Broken at 7,500' AGL
Temperature
12°C / 54°F
Dewpoint
C / 43°F
Humidity
67%
Altimeter
30.16" Hg
Pressure
1021.32 hPa
Previous

58 mins ago

KIZA 240155Z AUTO 29016G20KT 10SM SCT046 BKN065 OVC075 12/07 A3015 RMK AO2
Observed
Mar-24 @ 01:55 UTC
Wind
  • 290° at 16 KTS
  • Gusting to 20 KTS
Visibility
10 SM
Flight Rules
VFR
Cloud Levels
  • Scattered at 4,600' AGL
  • Broken at 6,500' AGL
  • Overcast at 7,500' AGL
Temperature
12°C / 54°F
Dewpoint
C / 45°F
Humidity
72%
Altimeter
30.15" Hg
Pressure
1021.02 hPa